Redmer Oldendorff — D5JV9 — position and weather

sailwx.info

Track history (hours):
 
Tides and Currents Weather Stations Pressure Air Temp Water Temp Dewpoint Dewpoint Depression Visibility Wind Speed Wind Dir Waves Ship Positions

Redmer Oldendorff

Last reported at 2018-Feb-18 12:54 UTC. Time now 2018-Feb-19 08:29 UTC.
Position S 20°46' E 116°12'.

Length 260 m; draft 7.8 m.

Type: Ship. MMSI: 636017224.

Date/timePositionNaut miles runAvg speedWind from/ knotsBaromVisibWave heightAir tempDewpointWater temp
2018-Feb-18 12:54S 20°46' E 116°12'0 0.0
2018-Feb-18 11:48S 20°46' E 116°12'  
2018-Feb-15 19:04S 20°26' E 116°12'4912.0
2018-Feb-15 14:59S 19°53' E 116°51'3412.6
2018-Feb-15 12:17S 19°19' E 116°52'513.2
2018-Feb-15 11:56S 19°15' E 116°52'1212.8
2018-Feb-15 10:58S 19°02' E 116°51'712.6
2018-Feb-15 10:23S 18°55' E 116°50'1212.7
2018-Feb-15 09:28S 18°43' E 116°48'2312.4
2018-Feb-15 07:37S 18°20' E 116°46'  
Track history (hours):
 
Tides and Currents Weather Stations Pressure Air Temp Water Temp Dewpoint Dewpoint Depression Visibility Wind Speed Wind Dir Waves Ship Positions

Redmer Oldendorff

Last reported at 2018-Feb-18 12:54 UTC. Time now 2018-Feb-19 08:29 UTC.
Position S 20°46' E 116°12'.

Length 260 m; draft 7.8 m.

Type: Ship. MMSI: 636017224.

Date/timePositionNaut miles runAvg speedWind from/ knotsBaromVisibWave heightAir tempDewpointWater temp
2018-Feb-18 12:54S 20°46' E 116°12'0 0.0
2018-Feb-18 11:48S 20°46' E 116°12'  
2018-Feb-15 19:04S 20°26' E 116°12'4912.0
2018-Feb-15 14:59S 19°53' E 116°51'3412.6
2018-Feb-15 12:17S 19°19' E 116°52'513.2
2018-Feb-15 11:56S 19°15' E 116°52'1212.8
2018-Feb-15 10:58S 19°02' E 116°51'712.6
2018-Feb-15 10:23S 18°55' E 116°50'1212.7
2018-Feb-15 09:28S 18°43' E 116°48'2312.4
2018-Feb-15 07:37S 18°20' E 116°46'  

Dump ship's entire track history